sensor_id;sensor_type;location;lat;lon;timestamp;P1;durP1;ratioP1;P2;durP2;ratioP2
5774;SDS011;2913;51.120;6.772;2022-09-12T00:02:19;77.28;;;27.10;;
5774;SDS011;2913;51.120;6.772;2022-09-12T00:04:44;77.22;;;29.23;;
5774;SDS011;2913;51.120;6.772;2022-09-12T00:07:12;79.35;;;30.67;;
5774;SDS011;2913;51.120;6.772;2022-09-12T00:09:38;75.43;;;28.33;;
5774;SDS011;2913;51.120;6.772;2022-09-12T00:12:06;87.30;;;31.60;;
5774;SDS011;2913;51.120;6.772;2022-09-12T00:14:32;74.13;;;28.17;;
5774;SDS011;2913;51.120;6.772;2022-09-12T00:16:57;82.55;;;28.35;;
5774;SDS011;2913;51.120;6.772;2022-09-12T00:19:26;73.47;;;27.35;;
5774;SDS011;2913;51.120;6.772;2022-09-12T00:21:53;88.00;;;28.30;;
5774;SDS011;2913;51.120;6.772;2022-09-12T00:24:18;80.60;;;29.30;;
5774;SDS011;2913;51.120;6.772;2022-09-12T00:26:47;84.78;;;28.55;;
5774;SDS011;2913;51.120;6.772;2022-09-12T00:29:16;71.50;;;28.08;;
5774;SDS011;2913;51.120;6.772;2022-09-12T00:31:43;77.20;;;28.58;;
5774;SDS011;2913;51.120;6.772;2022-09-12T00:34:09;80.13;;;28.58;;
5774;SDS011;2913;51.120;6.772;2022-09-12T00:36:35;80.50;;;29.08;;
5774;SDS011;2913;51.120;6.772;2022-09-12T00:39:01;106.38;;;32.05;;
5774;SDS011;2913;51.120;6.772;2022-09-12T00:46:49;101.18;;;32.17;;
5774;SDS011;2913;51.120;6.772;2022-09-12T00:57:27;91.50;;;30.95;;
5774;SDS011;2913;51.120;6.772;2022-09-12T01:00:00;98.32;;;32.05;;
5774;SDS011;2913;51.120;6.772;2022-09-12T01:02:48;92.53;;;30.00;;
5774;SDS011;2913;51.120;6.772;2022-09-12T01:05:17;81.53;;;29.52;;
5774;SDS011;2913;51.120;6.772;2022-09-12T01:07:49;89.50;;;29.40;;
5774;SDS011;2913;51.120;6.772;2022-09-12T01:10:16;81.45;;;29.70;;
5774;SDS011;2913;51.120;6.772;2022-09-12T01:12:43;88.38;;;30.02;;
5774;SDS011;2913;51.120;6.772;2022-09-12T01:15:11;83.38;;;28.17;;
5774;SDS011;2913;51.120;6.772;2022-09-12T01:17:41;76.90;;;28.95;;
5774;SDS011;2913;51.120;6.772;2022-09-12T01:20:29;91.22;;;30.45;;
5774;SDS011;2913;51.120;6.772;2022-09-12T01:31:13;80.93;;;28.33;;
5774;SDS011;2913;51.120;6.772;2022-09-12T01:36:46;94.90;;;31.33;;
5774;SDS011;2913;51.120;6.772;2022-09-12T01:45:01;85.30;;;28.77;;
5774;SDS011;2913;51.120;6.772;2022-09-12T01:47:40;95.30;;;29.70;;
5774;SDS011;2913;51.120;6.772;2022-09-12T01:50:07;97.15;;;29.73;;
5774;SDS011;2913;51.120;6.772;2022-09-12T01:52:49;85.43;;;28.88;;
5774;SDS011;2913;51.120;6.772;2022-09-12T01:55:19;93.93;;;31.10;;
5774;SDS011;2913;51.120;6.772;2022-09-12T01:58:01;93.03;;;29.55;;
5774;SDS011;2913;51.120;6.772;2022-09-12T02:00:41;81.15;;;28.85;;
5774;SDS011;2913;51.120;6.772;2022-09-12T02:03:38;87.03;;;28.88;;
5774;SDS011;2913;51.120;6.772;2022-09-12T02:06:31;88.72;;;29.67;;
5774;SDS011;2913;51.120;6.772;2022-09-12T02:09:13;74.82;;;28.77;;
5774;SDS011;2913;51.120;6.772;2022-09-12T02:11:51;83.22;;;28.45;;
5774;SDS011;2913;51.120;6.772;2022-09-12T02:14:28;87.10;;;29.50;;
5774;SDS011;2913;51.120;6.772;2022-09-12T02:17:21;82.82;;;28.90;;
5774;SDS011;2913;51.120;6.772;2022-09-12T02:19:58;73.88;;;27.55;;
5774;SDS011;2913;51.120;6.772;2022-09-12T02:22:34;83.82;;;28.00;;
5774;SDS011;2913;51.120;6.772;2022-09-12T02:25:01;89.80;;;29.30;;
5774;SDS011;2913;51.120;6.772;2022-09-12T02:27:41;78.82;;;29.10;;
5774;SDS011;2913;51.120;6.772;2022-09-12T02:30:11;84.30;;;29.17;;
5774;SDS011;2913;51.120;6.772;2022-09-12T02:32:45;81.03;;;29.98;;
5774;SDS011;2913;51.120;6.772;2022-09-12T02:35:37;79.60;;;27.38;;
5774;SDS011;2913;51.120;6.772;2022-09-12T02:38:50;90.72;;;28.50;;
5774;SDS011;2913;51.120;6.772;2022-09-12T02:41:13;91.88;;;28.20;;
5774;SDS011;2913;51.120;6.772;2022-09-12T02:43:47;89.40;;;29.00;;
5774;SDS011;2913;51.120;6.772;2022-09-12T02:46:17;83.57;;;29.35;;
5774;SDS011;2913;51.120;6.772;2022-09-12T02:48:49;84.57;;;28.13;;
5774;SDS011;2913;51.120;6.772;2022-09-12T02:51:15;80.03;;;27.92;;
5774;SDS011;2913;51.120;6.772;2022-09-12T02:53:44;81.55;;;27.27;;
5774;SDS011;2913;51.120;6.772;2022-09-12T02:56:10;78.38;;;27.52;;
5774;SDS011;2913;51.120;6.772;2022-09-12T02:58:42;86.13;;;27.80;;
5774;SDS011;2913;51.120;6.772;2022-09-12T03:01:13;79.13;;;28.13;;
5774;SDS011;2913;51.120;6.772;2022-09-12T03:09:21;74.85;;;26.67;;
5774;SDS011;2913;51.120;6.772;2022-09-12T03:15:06;76.70;;;27.02;;
5774;SDS011;2913;51.120;6.772;2022-09-12T03:17:56;88.13;;;28.55;;
5774;SDS011;2913;51.120;6.772;2022-09-12T03:20:33;75.88;;;27.50;;
5774;SDS011;2913;51.120;6.772;2022-09-12T03:26:24;74.80;;;26.75;;
5774;SDS011;2913;51.120;6.772;2022-09-12T03:29:02;106.65;;;30.60;;
5774;SDS011;2913;51.120;6.772;2022-09-12T03:31:30;97.88;;;28.73;;
5774;SDS011;2913;51.120;6.772;2022-09-12T03:33:56;77.72;;;26.92;;
5774;SDS011;2913;51.120;6.772;2022-09-12T03:36:27;77.65;;;27.08;;
5774;SDS011;2913;51.120;6.772;2022-09-12T03:38:54;87.82;;;28.25;;
5774;SDS011;2913;51.120;6.772;2022-09-12T03:41:19;86.43;;;26.98;;
5774;SDS011;2913;51.120;6.772;2022-09-12T03:43:45;67.20;;;24.98;;
5774;SDS011;2913;51.120;6.772;2022-09-12T03:46:13;73.80;;;26.45;;
5774;SDS011;2913;51.120;6.772;2022-09-12T03:48:39;69.38;;;24.80;;
5774;SDS011;2913;51.120;6.772;2022-09-12T03:51:08;79.55;;;26.40;;
5774;SDS011;2913;51.120;6.772;2022-09-12T03:53:34;72.95;;;25.83;;
5774;SDS011;2913;51.120;6.772;2022-09-12T03:56:04;74.70;;;26.30;;
5774;SDS011;2913;51.120;6.772;2022-09-12T03:58:33;67.60;;;25.52;;
5774;SDS011;2913;51.120;6.772;2022-09-12T04:01:00;78.15;;;25.92;;
5774;SDS011;2913;51.120;6.772;2022-09-12T04:03:47;72.32;;;25.48;;
5774;SDS011;2913;51.120;6.772;2022-09-12T04:06:19;71.35;;;26.58;;
5774;SDS011;2913;51.120;6.772;2022-09-12T04:08:47;68.20;;;25.48;;
5774;SDS011;2913;51.120;6.772;2022-09-12T04:11:14;68.13;;;25.55;;
5774;SDS011;2913;51.120;6.772;2022-09-12T04:13:46;65.57;;;23.55;;
5774;SDS011;2913;51.120;6.772;2022-09-12T04:16:12;71.47;;;25.75;;
5774;SDS011;2913;51.120;6.772;2022-09-12T04:18:38;73.90;;;24.42;;
5774;SDS011;2913;51.120;6.772;2022-09-12T04:21:05;69.35;;;24.13;;
5774;SDS011;2913;51.120;6.772;2022-09-12T04:23:33;65.95;;;23.77;;
5774;SDS011;2913;51.120;6.772;2022-09-12T04:26:02;59.47;;;22.10;;
5774;SDS011;2913;51.120;6.772;2022-09-12T04:28:32;60.83;;;22.02;;
5774;SDS011;2913;51.120;6.772;2022-09-12T04:31:05;50.92;;;21.70;;
5774;SDS011;2913;51.120;6.772;2022-09-12T04:33:35;66.72;;;23.05;;
5774;SDS011;2913;51.120;6.772;2022-09-12T04:36:07;57.42;;;23.00;;
5774;SDS011;2913;51.120;6.772;2022-09-12T04:38:41;55.40;;;21.15;;
5774;SDS011;2913;51.120;6.772;2022-09-12T04:41:15;58.15;;;21.27;;
5774;SDS011;2913;51.120;6.772;2022-09-12T04:43:42;60.50;;;21.98;;
5774;SDS011;2913;51.120;6.772;2022-09-12T04:46:11;53.80;;;22.88;;
5774;SDS011;2913;51.120;6.772;2022-09-12T04:48:39;60.28;;;22.38;;
5774;SDS011;2913;51.120;6.772;2022-09-12T04:51:14;53.42;;;21.42;;
5774;SDS011;2913;51.120;6.772;2022-09-12T04:54:05;57.03;;;20.92;;
5774;SDS011;2913;51.120;6.772;2022-09-12T04:56:35;55.63;;;18.97;;
5774;SDS011;2913;51.120;6.772;2022-09-12T04:59:02;56.10;;;22.48;;
5774;SDS011;2913;51.120;6.772;2022-09-12T05:01:28;55.58;;;23.05;;
5774;SDS011;2913;51.120;6.772;2022-09-12T05:03:54;63.30;;;21.55;;
5774;SDS011;2913;51.120;6.772;2022-09-12T05:06:21;60.30;;;23.00;;
5774;SDS011;2913;51.120;6.772;2022-09-12T05:08:50;59.78;;;22.80;;
5774;SDS011;2913;51.120;6.772;2022-09-12T05:11:17;56.80;;;21.23;;
5774;SDS011;2913;51.120;6.772;2022-09-12T05:13:47;56.35;;;21.52;;
5774;SDS011;2913;51.120;6.772;2022-09-12T05:16:14;56.45;;;21.67;;
5774;SDS011;2913;51.120;6.772;2022-09-12T05:18:41;52.53;;;21.33;;
5774;SDS011;2913;51.120;6.772;2022-09-12T05:21:10;58.05;;;22.23;;
5774;SDS011;2913;51.120;6.772;2022-09-12T05:23:38;57.60;;;20.95;;
5774;SDS011;2913;51.120;6.772;2022-09-12T05:26:04;54.22;;;20.50;;
5774;SDS011;2913;51.120;6.772;2022-09-12T05:28:32;60.55;;;21.95;;
5774;SDS011;2913;51.120;6.772;2022-09-12T05:31:05;53.72;;;21.55;;
5774;SDS011;2913;51.120;6.772;2022-09-12T05:33:34;53.33;;;20.73;;
5774;SDS011;2913;51.120;6.772;2022-09-12T05:36:04;51.08;;;20.10;;
5774;SDS011;2913;51.120;6.772;2022-09-12T05:38:34;47.85;;;20.67;;
5774;SDS011;2913;51.120;6.772;2022-09-12T05:43:33;48.72;;;21.02;;
5774;SDS011;2913;51.120;6.772;2022-09-12T05:46:03;52.50;;;18.52;;
5774;SDS011;2913;51.120;6.772;2022-09-12T05:48:32;56.10;;;18.75;;
5774;SDS011;2913;51.120;6.772;2022-09-12T05:51:03;44.55;;;17.67;;
5774;SDS011;2913;51.120;6.772;2022-09-12T05:53:46;41.60;;;17.38;;
5774;SDS011;2913;51.120;6.772;2022-09-12T05:56:15;42.08;;;17.85;;
5774;SDS011;2913;51.120;6.772;2022-09-12T05:58:43;42.60;;;16.98;;
5774;SDS011;2913;51.120;6.772;2022-09-12T06:01:14;49.92;;;17.90;;
5774;SDS011;2913;51.120;6.772;2022-09-12T06:03:42;38.95;;;17.80;;
5774;SDS011;2913;51.120;6.772;2022-09-12T06:06:10;43.13;;;17.23;;
5774;SDS011;2913;51.120;6.772;2022-09-12T06:08:40;41.92;;;16.67;;
5774;SDS011;2913;51.120;6.772;2022-09-12T06:11:08;45.47;;;16.20;;
5774;SDS011;2913;51.120;6.772;2022-09-12T06:13:36;46.55;;;16.58;;
5774;SDS011;2913;51.120;6.772;2022-09-12T06:18:34;37.17;;;16.13;;
5774;SDS011;2913;51.120;6.772;2022-09-12T06:21:02;39.08;;;16.05;;
5774;SDS011;2913;51.120;6.772;2022-09-12T06:23:35;39.17;;;16.10;;
5774;SDS011;2913;51.120;6.772;2022-09-12T06:26:02;33.15;;;15.50;;
5774;SDS011;2913;51.120;6.772;2022-09-12T06:28:31;32.05;;;15.27;;
5774;SDS011;2913;51.120;6.772;2022-09-12T06:33:30;31.92;;;14.77;;
5774;SDS011;2913;51.120;6.772;2022-09-12T06:38:31;36.10;;;14.85;;
5774;SDS011;2913;51.120;6.772;2022-09-12T06:40:57;28.65;;;14.57;;
5774;SDS011;2913;51.120;6.772;2022-09-12T06:43:24;32.15;;;14.63;;
5774;SDS011;2913;51.120;6.772;2022-09-12T06:45:50;34.70;;;15.65;;
5774;SDS011;2913;51.120;6.772;2022-09-12T06:48:16;30.92;;;13.80;;
5774;SDS011;2913;51.120;6.772;2022-09-12T06:50:53;32.53;;;14.90;;
5774;SDS011;2913;51.120;6.772;2022-09-12T06:53:20;32.38;;;14.70;;
5774;SDS011;2913;51.120;6.772;2022-09-12T06:55:48;34.25;;;15.65;;
5774;SDS011;2913;51.120;6.772;2022-09-12T06:58:25;35.97;;;15.30;;
5774;SDS011;2913;51.120;6.772;2022-09-12T07:00:52;32.33;;;14.70;;
5774;SDS011;2913;51.120;6.772;2022-09-12T07:03:25;29.65;;;14.55;;
5774;SDS011;2913;51.120;6.772;2022-09-12T07:05:53;34.25;;;15.38;;
5774;SDS011;2913;51.120;6.772;2022-09-12T07:08:19;31.67;;;15.13;;
5774;SDS011;2913;51.120;6.772;2022-09-12T07:10:45;32.08;;;14.98;;
5774;SDS011;2913;51.120;6.772;2022-09-12T07:13:13;34.22;;;14.75;;
5774;SDS011;2913;51.120;6.772;2022-09-12T07:15:39;30.02;;;15.20;;
5774;SDS011;2913;51.120;6.772;2022-09-12T07:18:04;30.48;;;14.88;;
5774;SDS011;2913;51.120;6.772;2022-09-12T07:20:32;30.05;;;14.50;;
5774;SDS011;2913;51.120;6.772;2022-09-12T07:22:58;40.20;;;15.23;;
5774;SDS011;2913;51.120;6.772;2022-09-12T07:25:29;35.03;;;14.73;;
5774;SDS011;2913;51.120;6.772;2022-09-12T07:27:56;29.20;;;14.48;;
5774;SDS011;2913;51.120;6.772;2022-09-12T07:30:22;37.33;;;15.40;;
5774;SDS011;2913;51.120;6.772;2022-09-12T07:32:51;33.08;;;14.73;;
5774;SDS011;2913;51.120;6.772;2022-09-12T07:35:19;34.10;;;14.73;;
5774;SDS011;2913;51.120;6.772;2022-09-12T07:37:45;27.67;;;14.60;;
5774;SDS011;2913;51.120;6.772;2022-09-12T07:40:13;33.50;;;14.57;;
5774;SDS011;2913;51.120;6.772;2022-09-12T07:42:39;30.30;;;14.18;;
5774;SDS011;2913;51.120;6.772;2022-09-12T07:45:05;33.42;;;15.60;;
5774;SDS011;2913;51.120;6.772;2022-09-12T07:47:31;29.05;;;14.60;;
5774;SDS011;2913;51.120;6.772;2022-09-12T07:49:57;37.95;;;15.15;;
5774;SDS011;2913;51.120;6.772;2022-09-12T07:52:23;34.30;;;15.25;;
5774;SDS011;2913;51.120;6.772;2022-09-12T07:54:48;41.35;;;14.60;;
5774;SDS011;2913;51.120;6.772;2022-09-12T07:57:14;33.65;;;14.60;;
5774;SDS011;2913;51.120;6.772;2022-09-12T07:59:42;34.95;;;14.32;;
5774;SDS011;2913;51.120;6.772;2022-09-12T08:02:09;41.13;;;14.80;;
5774;SDS011;2913;51.120;6.772;2022-09-12T08:04:40;30.88;;;14.10;;
5774;SDS011;2913;51.120;6.772;2022-09-12T08:07:07;37.13;;;15.57;;
5774;SDS011;2913;51.120;6.772;2022-09-12T08:09:33;30.88;;;14.43;;
5774;SDS011;2913;51.120;6.772;2022-09-12T08:11:59;31.95;;;14.95;;
5774;SDS011;2913;51.120;6.772;2022-09-12T08:14:25;31.65;;;14.05;;
5774;SDS011;2913;51.120;6.772;2022-09-12T08:16:53;32.78;;;14.38;;
5774;SDS011;2913;51.120;6.772;2022-09-12T08:19:20;34.40;;;15.45;;
5774;SDS011;2913;51.120;6.772;2022-09-12T08:21:48;32.53;;;15.30;;
5774;SDS011;2913;51.120;6.772;2022-09-12T08:24:14;28.73;;;14.30;;
5774;SDS011;2913;51.120;6.772;2022-09-12T08:26:39;34.58;;;13.43;;
5774;SDS011;2913;51.120;6.772;2022-09-12T08:29:05;29.10;;;13.35;;
5774;SDS011;2913;51.120;6.772;2022-09-12T08:31:31;30.25;;;14.30;;
5774;SDS011;2913;51.120;6.772;2022-09-12T08:34:01;30.15;;;13.98;;
5774;SDS011;2913;51.120;6.772;2022-09-12T08:36:30;30.23;;;13.50;;
5774;SDS011;2913;51.120;6.772;2022-09-12T08:38:57;26.48;;;13.82;;
5774;SDS011;2913;51.120;6.772;2022-09-12T08:49:40;34.53;;;13.35;;
5774;SDS011;2913;51.120;6.772;2022-09-12T08:54:45;29.02;;;12.88;;
5774;SDS011;2913;51.120;6.772;2022-09-12T08:57:11;26.42;;;12.20;;
5774;SDS011;2913;51.120;6.772;2022-09-12T08:59:42;27.67;;;12.75;;
5774;SDS011;2913;51.120;6.772;2022-09-12T09:05:24;24.08;;;12.18;;
5774;SDS011;2913;51.120;6.772;2022-09-12T09:11:08;28.88;;;12.45;;
5774;SDS011;2913;51.120;6.772;2022-09-12T09:14:11;23.77;;;11.40;;
5774;SDS011;2913;51.120;6.772;2022-09-12T09:20:04;22.75;;;11.48;;
5774;SDS011;2913;51.120;6.772;2022-09-12T09:25:22;20.33;;;11.57;;
5774;SDS011;2913;51.120;6.772;2022-09-12T09:28:11;26.13;;;11.55;;
5774;SDS011;2913;51.120;6.772;2022-09-12T09:30:45;21.77;;;11.07;;
5774;SDS011;2913;51.120;6.772;2022-09-12T09:33:23;66.47;;;11.93;;
5774;SDS011;2913;51.120;6.772;2022-09-12T09:43:57;21.83;;;11.60;;
5774;SDS011;2913;51.120;6.772;2022-09-12T09:46:24;38.63;;;11.50;;
5774;SDS011;2913;51.120;6.772;2022-09-12T09:48:51;20.48;;;10.20;;
5774;SDS011;2913;51.120;6.772;2022-09-12T09:51:27;20.00;;;8.82;;
5774;SDS011;2913;51.120;6.772;2022-09-12T09:54:17;18.52;;;9.50;;
5774;SDS011;2913;51.120;6.772;2022-09-12T09:56:47;21.02;;;10.15;;
5774;SDS011;2913;51.120;6.772;2022-09-12T09:59:15;19.63;;;9.80;;
5774;SDS011;2913;51.120;6.772;2022-09-12T10:04:16;24.95;;;10.73;;
5774;SDS011;2913;51.120;6.772;2022-09-12T10:06:50;22.75;;;9.55;;
5774;SDS011;2913;51.120;6.772;2022-09-12T10:09:29;37.10;;;9.70;;
5774;SDS011;2913;51.120;6.772;2022-09-12T10:12:12;18.55;;;9.27;;
5774;SDS011;2913;51.120;6.772;2022-09-12T10:14:57;17.40;;;8.30;;
5774;SDS011;2913;51.120;6.772;2022-09-12T10:17:26;28.00;;;7.50;;
5774;SDS011;2913;51.120;6.772;2022-09-12T10:22:59;16.08;;;8.18;;
5774;SDS011;2913;51.120;6.772;2022-09-12T10:25:54;19.27;;;7.95;;
5774;SDS011;2913;51.120;6.772;2022-09-12T10:28:28;16.08;;;8.23;;
5774;SDS011;2913;51.120;6.772;2022-09-12T10:30:55;18.05;;;8.38;;
5774;SDS011;2913;51.120;6.772;2022-09-12T10:33:22;13.43;;;7.03;;
5774;SDS011;2913;51.120;6.772;2022-09-12T10:35:49;16.25;;;7.32;;
5774;SDS011;2913;51.120;6.772;2022-09-12T10:40:54;14.40;;;7.30;;
5774;SDS011;2913;51.120;6.772;2022-09-12T10:45:57;13.10;;;7.40;;
5774;SDS011;2913;51.120;6.772;2022-09-12T10:49:11;16.38;;;7.25;;
5774;SDS011;2913;51.120;6.772;2022-09-12T10:51:50;13.18;;;6.55;;
5774;SDS011;2913;51.120;6.772;2022-09-12T10:54:18;12.25;;;6.60;;
5774;SDS011;2913;51.120;6.772;2022-09-12T11:00:23;12.93;;;6.07;;
5774;SDS011;2913;51.120;6.772;2022-09-12T11:02:49;11.65;;;5.85;;
5774;SDS011;2913;51.120;6.772;2022-09-12T11:08:02;9.75;;;6.20;;
5774;SDS011;2913;51.120;6.772;2022-09-12T11:27:58;19.02;;;6.10;;
5774;SDS011;2913;51.120;6.772;2022-09-12T11:36:20;11.75;;;6.13;;
5774;SDS011;2913;51.120;6.772;2022-09-12T11:39:14;12.32;;;6.28;;
5774;SDS011;2913;51.120;6.772;2022-09-12T11:41:48;15.75;;;6.15;;
5774;SDS011;2913;51.120;6.772;2022-09-12T11:44:28;11.10;;;6.05;;
5774;SDS011;2913;51.120;6.772;2022-09-12T11:47:03;13.27;;;6.07;;
5774;SDS011;2913;51.120;6.772;2022-09-12T11:49:35;12.93;;;5.78;;
5774;SDS011;2913;51.120;6.772;2022-09-12T11:52:23;9.90;;;5.15;;
5774;SDS011;2913;51.120;6.772;2022-09-12T11:57:37;13.63;;;5.57;;
5774;SDS011;2913;51.120;6.772;2022-09-12T12:03:46;7.22;;;5.10;;
5774;SDS011;2913;51.120;6.772;2022-09-12T12:05:58;12.70;;;5.63;;
5774;SDS011;2913;51.120;6.772;2022-09-12T12:08:26;11.15;;;5.57;;
5774;SDS011;2913;51.120;6.772;2022-09-12T12:10:57;12.32;;;5.93;;
5774;SDS011;2913;51.120;6.772;2022-09-12T12:16:26;10.55;;;5.95;;
5774;SDS011;2913;51.120;6.772;2022-09-12T12:18:57;17.98;;;6.00;;
5774;SDS011;2913;51.120;6.772;2022-09-12T12:26:55;14.57;;;6.13;;
5774;SDS011;2913;51.120;6.772;2022-09-12T12:29:43;10.55;;;6.00;;
5774;SDS011;2913;51.120;6.772;2022-09-12T12:34:38;11.52;;;5.68;;
5774;SDS011;2913;51.120;6.772;2022-09-12T12:45:03;7.35;;;5.15;;
5774;SDS011;2913;51.120;6.772;2022-09-12T12:47:51;12.77;;;5.32;;
5774;SDS011;2913;51.120;6.772;2022-09-12T12:50:22;8.60;;;5.10;;
5774;SDS011;2913;51.120;6.772;2022-09-12T12:55:29;8.98;;;5.30;;
5774;SDS011;2913;51.120;6.772;2022-09-12T12:58:03;9.23;;;5.30;;
5774;SDS011;2913;51.120;6.772;2022-09-12T13:00:45;9.18;;;5.30;;
5774;SDS011;2913;51.120;6.772;2022-09-12T13:03:21;8.38;;;5.05;;
5774;SDS011;2913;51.120;6.772;2022-09-12T13:05:56;10.35;;;5.57;;
5774;SDS011;2913;51.120;6.772;2022-09-12T13:08:32;12.07;;;5.03;;
5774;SDS011;2913;51.120;6.772;2022-09-12T13:11:06;10.10;;;5.18;;
5774;SDS011;2913;51.120;6.772;2022-09-12T13:19:10;9.05;;;5.53;;
5774;SDS011;2913;51.120;6.772;2022-09-12T13:21:53;8.48;;;5.18;;
5774;SDS011;2913;51.120;6.772;2022-09-12T13:24:20;7.53;;;5.10;;
5774;SDS011;2913;51.120;6.772;2022-09-12T13:26:47;9.75;;;5.43;;
5774;SDS011;2913;51.120;6.772;2022-09-12T13:29:17;7.82;;;5.20;;
5774;SDS011;2913;51.120;6.772;2022-09-12T13:31:44;8.70;;;5.60;;
5774;SDS011;2913;51.120;6.772;2022-09-12T13:34:15;7.93;;;5.20;;
5774;SDS011;2913;51.120;6.772;2022-09-12T13:42:40;7.57;;;5.32;;
5774;SDS011;2913;51.120;6.772;2022-09-12T13:45:16;11.48;;;5.72;;
5774;SDS011;2913;51.120;6.772;2022-09-12T13:47:46;10.23;;;5.70;;
5774;SDS011;2913;51.120;6.772;2022-09-12T13:50:20;9.98;;;5.88;;
5774;SDS011;2913;51.120;6.772;2022-09-12T13:52:54;15.88;;;6.40;;
5774;SDS011;2913;51.120;6.772;2022-09-12T13:55:30;9.23;;;5.65;;
5774;SDS011;2913;51.120;6.772;2022-09-12T13:58:02;14.30;;;6.38;;
5774;SDS011;2913;51.120;6.772;2022-09-12T14:00:32;13.18;;;6.20;;
5774;SDS011;2913;51.120;6.772;2022-09-12T14:02:59;22.17;;;6.35;;
5774;SDS011;2913;51.120;6.772;2022-09-12T14:05:55;13.45;;;6.30;;
5774;SDS011;2913;51.120;6.772;2022-09-12T14:08:21;24.60;;;6.43;;
5774;SDS011;2913;51.120;6.772;2022-09-12T14:10:48;30.88;;;6.95;;
5774;SDS011;2913;51.120;6.772;2022-09-12T14:13:19;12.20;;;6.72;;
5774;SDS011;2913;51.120;6.772;2022-09-12T14:15:50;9.57;;;6.20;;
5774;SDS011;2913;51.120;6.772;2022-09-12T14:20:52;11.40;;;6.22;;
5774;SDS011;2913;51.120;6.772;2022-09-12T14:23:29;13.55;;;6.20;;
5774;SDS011;2913;51.120;6.772;2022-09-12T14:26:01;10.40;;;6.15;;
5774;SDS011;2913;51.120;6.772;2022-09-12T14:28:29;8.73;;;6.25;;
5774;SDS011;2913;51.120;6.772;2022-09-12T14:31:02;19.58;;;7.00;;
5774;SDS011;2913;51.120;6.772;2022-09-12T14:33:31;11.40;;;6.90;;
5774;SDS011;2913;51.120;6.772;2022-09-12T14:38:57;9.70;;;6.30;;
5774;SDS011;2913;51.120;6.772;2022-09-12T14:41:31;15.85;;;6.55;;
5774;SDS011;2913;51.120;6.772;2022-09-12T14:44:01;9.50;;;6.20;;
5774;SDS011;2913;51.120;6.772;2022-09-12T14:49:06;10.88;;;6.03;;
5774;SDS011;2913;51.120;6.772;2022-09-12T14:51:35;19.50;;;6.78;;
5774;SDS011;2913;51.120;6.772;2022-09-12T14:54:03;13.27;;;5.63;;
5774;SDS011;2913;51.120;6.772;2022-09-12T14:56:39;8.48;;;5.70;;
5774;SDS011;2913;51.120;6.772;2022-09-12T15:04:43;19.92;;;6.70;;
5774;SDS011;2913;51.120;6.772;2022-09-12T15:07:37;10.68;;;6.38;;
5774;SDS011;2913;51.120;6.772;2022-09-12T15:12:49;18.67;;;6.68;;
5774;SDS011;2913;51.120;6.772;2022-09-12T15:15:37;21.80;;;5.90;;
5774;SDS011;2913;51.120;6.772;2022-09-12T15:18:03;13.23;;;6.00;;
5774;SDS011;2913;51.120;6.772;2022-09-12T15:20:30;8.95;;;5.63;;
5774;SDS011;2913;51.120;6.772;2022-09-12T15:22:56;9.88;;;5.95;;
5774;SDS011;2913;51.120;6.772;2022-09-12T15:25:22;16.38;;;6.57;;
5774;SDS011;2913;51.120;6.772;2022-09-12T15:27:51;12.20;;;6.03;;
5774;SDS011;2913;51.120;6.772;2022-09-12T15:30:20;11.40;;;6.00;;
5774;SDS011;2913;51.120;6.772;2022-09-12T15:32:46;12.68;;;6.50;;
5774;SDS011;2913;51.120;6.772;2022-09-12T15:35:14;15.25;;;6.25;;
5774;SDS011;2913;51.120;6.772;2022-09-12T15:37:41;9.70;;;6.10;;
5774;SDS011;2913;51.120;6.772;2022-09-12T15:40:10;16.42;;;5.68;;
5774;SDS011;2913;51.120;6.772;2022-09-12T15:42:36;9.38;;;5.80;;
5774;SDS011;2913;51.120;6.772;2022-09-12T15:45:04;12.07;;;6.00;;
5774;SDS011;2913;51.120;6.772;2022-09-12T15:47:47;17.80;;;5.57;;
5774;SDS011;2913;51.120;6.772;2022-09-12T15:50:15;11.20;;;6.03;;
5774;SDS011;2913;51.120;6.772;2022-09-12T15:52:43;10.48;;;5.63;;
5774;SDS011;2913;51.120;6.772;2022-09-12T15:55:31;10.13;;;5.70;;
5774;SDS011;2913;51.120;6.772;2022-09-12T15:57:57;16.20;;;6.15;;
5774;SDS011;2913;51.120;6.772;2022-09-12T16:00:25;11.25;;;5.40;;
5774;SDS011;2913;51.120;6.772;2022-09-12T16:02:51;8.73;;;5.68;;
5774;SDS011;2913;51.120;6.772;2022-09-12T16:05:22;12.90;;;5.80;;
5774;SDS011;2913;51.120;6.772;2022-09-12T16:07:50;9.93;;;5.53;;
5774;SDS011;2913;51.120;6.772;2022-09-12T16:10:18;9.55;;;5.78;;
5774;SDS011;2913;51.120;6.772;2022-09-12T16:12:49;11.70;;;5.78;;
5774;SDS011;2913;51.120;6.772;2022-09-12T16:15:17;9.40;;;6.32;;
5774;SDS011;2913;51.120;6.772;2022-09-12T16:17:49;13.20;;;6.07;;
5774;SDS011;2913;51.120;6.772;2022-09-12T16:20:16;10.77;;;6.07;;
5774;SDS011;2913;51.120;6.772;2022-09-12T16:22:45;17.65;;;6.28;;
5774;SDS011;2913;51.120;6.772;2022-09-12T16:25:10;11.48;;;6.65;;
5774;SDS011;2913;51.120;6.772;2022-09-12T16:27:38;14.55;;;6.20;;
5774;SDS011;2913;51.120;6.772;2022-09-12T16:30:04;11.52;;;6.60;;
5774;SDS011;2913;51.120;6.772;2022-09-12T16:32:33;11.25;;;6.32;;
5774;SDS011;2913;51.120;6.772;2022-09-12T16:35:01;19.05;;;7.00;;
5774;SDS011;2913;51.120;6.772;2022-09-12T16:37:27;10.80;;;6.25;;
5774;SDS011;2913;51.120;6.772;2022-09-12T16:39:55;12.07;;;6.15;;
5774;SDS011;2913;51.120;6.772;2022-09-12T16:42:23;11.13;;;5.75;;
5774;SDS011;2913;51.120;6.772;2022-09-12T16:44:48;12.18;;;5.90;;
5774;SDS011;2913;51.120;6.772;2022-09-12T16:47:16;10.50;;;5.75;;
5774;SDS011;2913;51.120;6.772;2022-09-12T16:49:44;13.55;;;5.55;;
5774;SDS011;2913;51.120;6.772;2022-09-12T16:52:10;12.27;;;5.70;;
5774;SDS011;2913;51.120;6.772;2022-09-12T16:54:38;10.48;;;5.93;;
5774;SDS011;2913;51.120;6.772;2022-09-12T16:57:09;9.70;;;5.53;;
5774;SDS011;2913;51.120;6.772;2022-09-12T16:59:35;23.95;;;6.07;;
5774;SDS011;2913;51.120;6.772;2022-09-12T17:02:00;10.55;;;5.63;;
5774;SDS011;2913;51.120;6.772;2022-09-12T17:04:26;14.63;;;5.75;;
5774;SDS011;2913;51.120;6.772;2022-09-12T17:06:52;9.82;;;5.55;;
5774;SDS011;2913;51.120;6.772;2022-09-12T17:09:17;18.60;;;6.47;;
5774;SDS011;2913;51.120;6.772;2022-09-12T17:11:46;10.88;;;6.00;;
5774;SDS011;2913;51.120;6.772;2022-09-12T17:14:16;18.67;;;5.88;;
5774;SDS011;2913;51.120;6.772;2022-09-12T17:16:43;9.10;;;5.22;;
5774;SDS011;2913;51.120;6.772;2022-09-12T17:19:16;21.98;;;6.35;;
5774;SDS011;2913;51.120;6.772;2022-09-12T17:21:46;13.82;;;6.35;;
5774;SDS011;2913;51.120;6.772;2022-09-12T17:24:15;13.63;;;7.72;;
5774;SDS011;2913;51.120;6.772;2022-09-12T17:26:44;16.98;;;8.00;;
5774;SDS011;2913;51.120;6.772;2022-09-12T17:29:12;17.77;;;7.60;;
5774;SDS011;2913;51.120;6.772;2022-09-12T17:31:39;13.02;;;6.78;;
5774;SDS011;2913;51.120;6.772;2022-09-12T17:34:05;15.80;;;6.57;;
5774;SDS011;2913;51.120;6.772;2022-09-12T17:36:34;14.40;;;6.53;;
5774;SDS011;2913;51.120;6.772;2022-09-12T17:39:00;12.85;;;6.70;;
5774;SDS011;2913;51.120;6.772;2022-09-12T17:41:28;14.23;;;6.72;;
5774;SDS011;2913;51.120;6.772;2022-09-12T17:43:58;14.70;;;6.05;;
5774;SDS011;2913;51.120;6.772;2022-09-12T17:46:28;16.40;;;6.45;;
5774;SDS011;2913;51.120;6.772;2022-09-12T17:48:56;15.82;;;6.50;;
5774;SDS011;2913;51.120;6.772;2022-09-12T17:51:23;13.95;;;6.80;;
5774;SDS011;2913;51.120;6.772;2022-09-12T17:53:57;16.98;;;7.20;;
5774;SDS011;2913;51.120;6.772;2022-09-12T17:56:25;15.88;;;7.30;;
5774;SDS011;2913;51.120;6.772;2022-09-12T17:58:52;17.13;;;7.13;;
5774;SDS011;2913;51.120;6.772;2022-09-12T18:01:19;13.27;;;6.43;;
5774;SDS011;2913;51.120;6.772;2022-09-12T18:04:05;17.92;;;6.82;;
5774;SDS011;2913;51.120;6.772;2022-09-12T18:06:31;13.27;;;6.40;;
5774;SDS011;2913;51.120;6.772;2022-09-12T18:09:01;12.55;;;5.95;;
5774;SDS011;2913;51.120;6.772;2022-09-12T18:11:34;13.60;;;7.18;;
5774;SDS011;2913;51.120;6.772;2022-09-12T18:14:00;16.38;;;7.43;;
5774;SDS011;2913;51.120;6.772;2022-09-12T18:16:26;15.38;;;7.45;;
5774;SDS011;2913;51.120;6.772;2022-09-12T18:18:52;12.63;;;7.07;;